ENGC

Gullfax Platform Airport

Norway
METAR ENGC 241320Z 30015KT 9999 FEW040 08/M01 Q1027 W09/S5
Observed Flight Rules
Sep-24 @ 13:20 UTC (40 minutes ago) Visual Flight Rules
Wind Visibility Clouds
300° at 15 knots 10,000+ meters
  • Few at 4,000' AGL
Temperatures Readings
Current 8°C / 46°F
Dewpoint -1°C / 30°F
Humidity 53%
Altimeter 30.32" Hg
Pressure 1027 hPa
Elevation 10
METAR ENGC 241320Z 30015KT 9999 FEW040 08/M01 Q1027 W09/S5
Observed Flight Rules
Sep-24 @ 13:20 UTC
(40 minutes ago)
VFR
Wind Visibility
300° at 15 knots 10,000+ meters
Clouds
  • Few at 4,000' AGL
Temperature Dewpoint
8°C / 46°F -1°C / 30°F
Humidity Altimeter Pressure
53% 30.32" Hg 1027 hPa